createdAt,value
2023-03-22T00:02:10.777Z,94180.31
2023-03-22T00:04:38.705Z,94177.81
2023-03-22T00:07:06.646Z,94182.28
2023-03-22T00:09:36.541Z,94180.94
2023-03-22T00:12:04.919Z,94190.63
2023-03-22T00:14:32.970Z,94188.06
2023-03-22T00:17:00.983Z,94181.75
2023-03-22T00:19:29.625Z,94174.28
2023-03-22T00:21:57.596Z,94174.63
2023-03-22T00:24:25.610Z,94187.19
2023-03-22T00:26:54.897Z,94170.94
2023-03-22T00:29:24.267Z,94169.75
2023-03-22T00:31:54.414Z,94174.50
2023-03-22T00:34:22.545Z,94159.03
2023-03-22T00:36:52.001Z,94174.75
2023-03-22T00:39:20.078Z,94169.97
2023-03-22T00:41:48.049Z,94161.16
2023-03-22T00:44:17.546Z,94175.31
2023-03-22T00:46:45.542Z,94174.03
2023-03-22T00:49:13.576Z,94164.53
2023-03-22T00:51:41.592Z,94161.28
2023-03-22T00:54:09.731Z,94171.16
2023-03-22T00:56:38.384Z,94170.66
2023-03-22T00:59:06.474Z,94151.59
2023-03-22T01:01:35.905Z,94170.97
2023-03-22T01:04:05.174Z,94171.56
2023-03-22T01:06:33.127Z,94163.78
2023-03-22T01:09:01.039Z,94164.22
2023-03-22T01:11:29.263Z,94170.13
2023-03-22T01:13:57.228Z,94162.63
2023-03-22T01:16:25.319Z,94155.88
2023-03-22T01:18:54.743Z,94151.41
2023-03-22T01:21:22.720Z,94142.38
2023-03-22T01:23:50.721Z,94152.63
2023-03-22T01:26:18.684Z,94163.34
2023-03-22T01:28:46.678Z,94156.59
2023-03-22T01:31:14.606Z,94143.59
2023-03-22T01:33:42.629Z,94133.41
2023-03-22T01:36:12.565Z,94151.34
2023-03-22T01:38:41.022Z,94149.38
2023-03-22T01:41:08.965Z,94148.59
2023-03-22T01:43:37.263Z,94138.41
2023-03-22T01:46:05.712Z,94125.94
2023-03-22T01:48:36.678Z,94140.50
2023-03-22T01:51:09.669Z,94140.88
2023-03-22T01:53:42.652Z,94135.72
2023-03-22T01:56:12.811Z,94128.72
2023-03-22T01:58:42.455Z,94148.44
2023-03-22T02:01:12.416Z,94121.66
2023-03-22T02:03:48.889Z,94126.31
2023-03-22T02:06:17.488Z,94142.78
2023-03-22T02:08:47.137Z,94149.88
2023-03-22T02:11:18.367Z,94138.53
2023-03-22T02:14:09.198Z,94149.00
2023-03-22T02:16:49.965Z,94138.53
2023-03-22T02:20:00.136Z,94143.72
2023-03-22T02:23:02.654Z,94148.91
2023-03-22T02:25:51.691Z,94148.72
2023-03-22T02:28:28.209Z,94150.03
2023-03-22T02:31:34.222Z,94150.03
2023-03-22T02:34:32.315Z,94154.56
2023-03-22T02:37:44.860Z,94149.13
2023-03-22T02:40:18.612Z,94163.19
2023-03-22T02:42:56.954Z,94161.59
2023-03-22T02:45:31.835Z,94151.91
2023-03-22T02:48:07.186Z,94160.16
2023-03-22T02:50:42.370Z,94162.25
2023-03-22T02:53:17.810Z,94160.44
2023-03-22T02:55:53.233Z,94152.34
2023-03-22T02:58:25.593Z,94169.97
2023-03-22T03:00:59.471Z,94164.50
2023-03-22T03:03:30.608Z,94167.06
2023-03-22T03:06:02.630Z,94152.69
2023-03-22T03:08:31.971Z,94166.91
2023-03-22T03:11:01.440Z,94164.81
2023-03-22T03:13:29.491Z,94169.84
2023-03-22T03:16:00.632Z,94171.78
2023-03-22T03:18:40.674Z,94168.25
2023-03-22T03:21:18.145Z,94178.25
2023-03-22T03:23:54.930Z,94180.00
2023-03-22T03:26:35.002Z,94160.97
2023-03-22T03:29:06.864Z,94157.69
2023-03-22T03:31:40.440Z,94159.78
2023-03-22T03:34:14.793Z,94159.78
2023-03-22T03:36:48.147Z,94177.81
2023-03-22T03:39:17.666Z,94179.72
2023-03-22T03:41:49.519Z,94185.56
2023-03-22T03:44:19.158Z,94180.03
2023-03-22T03:46:48.329Z,94168.72
2023-03-22T03:49:18.209Z,94185.56
2023-03-22T03:51:51.464Z,94172.13
2023-03-22T03:54:19.895Z,94176.25
2023-03-22T03:56:49.550Z,94183.53
2023-03-22T03:59:18.016Z,94184.00
2023-03-22T04:01:50.220Z,94190.47
2023-03-22T04:04:26.589Z,94176.59
2023-03-22T04:06:56.867Z,94192.78
2023-03-22T04:09:25.583Z,94174.72
2023-03-22T04:11:55.419Z,94181.81
2023-03-22T04:14:24.096Z,94191.56
2023-03-22T04:16:52.432Z,94190.91
2023-03-22T04:19:21.178Z,94200.28
2023-03-22T04:21:49.741Z,94183.66
2023-03-22T04:24:17.777Z,94177.69
2023-03-22T04:26:45.720Z,94177.69
2023-03-22T04:29:16.103Z,94190.94
2023-03-22T04:31:45.085Z,94190.78
2023-03-22T04:34:13.089Z,94207.25
2023-03-22T04:36:41.190Z,94209.34
2023-03-22T04:39:12.276Z,94204.50
2023-03-22T04:41:40.293Z,94203.69
2023-03-22T04:44:08.736Z,94203.53
2023-03-22T04:46:38.495Z,94193.81
2023-03-22T04:49:07.087Z,94205.44
2023-03-22T04:51:35.178Z,94213.88
2023-03-22T04:54:03.302Z,94217.41
2023-03-22T04:56:31.249Z,94211.94
2023-03-22T04:58:59.230Z,94223.56
2023-03-22T05:01:27.361Z,94224.06
2023-03-22T05:03:56.962Z,94220.00
2023-03-22T05:06:25.377Z,94223.41
2023-03-22T05:08:53.331Z,94196.56
2023-03-22T05:11:22.009Z,94223.06
2023-03-22T05:13:49.919Z,94228.75
2023-03-22T05:16:17.886Z,94229.06
2023-03-22T05:18:45.938Z,94238.78
2023-03-22T05:21:16.509Z,94243.13
2023-03-22T05:23:45.825Z,94239.41
2023-03-22T05:26:15.724Z,94240.41
2023-03-22T05:28:43.957Z,94234.88
2023-03-22T05:31:15.482Z,94248.28
2023-03-22T05:33:44.141Z,94227.13
2023-03-22T05:36:12.640Z,94220.81
2023-03-22T05:38:41.976Z,94256.19
2023-03-22T05:41:10.674Z,94252.97
2023-03-22T05:43:38.955Z,94230.34
2023-03-22T05:46:07.888Z,94257.03
2023-03-22T05:48:36.496Z,94226.66
2023-03-22T05:51:07.352Z,94253.63
2023-03-22T05:53:35.366Z,94235.06
2023-03-22T05:56:04.957Z,94244.25
2023-03-22T05:58:33.948Z,94262.84
2023-03-22T06:01:07.115Z,94251.38
2023-03-22T06:03:35.239Z,94267.66
2023-03-22T06:06:06.742Z,94249.91
2023-03-22T06:08:35.279Z,94258.16
2023-03-22T06:11:04.762Z,94254.75
2023-03-22T06:13:32.808Z,94271.09
2023-03-22T06:16:01.163Z,94275.28
2023-03-22T06:18:29.142Z,94283.34
2023-03-22T06:20:57.167Z,94270.41
2023-03-22T06:23:25.144Z,94270.72
2023-03-22T06:25:53.126Z,94281.03
2023-03-22T06:28:22.677Z,94276.94
2023-03-22T06:30:50.808Z,94279.41
2023-03-22T06:33:18.774Z,94273.56
2023-03-22T06:35:46.725Z,94287.81
2023-03-22T06:38:14.760Z,94290.03
2023-03-22T06:40:42.681Z,94291.69
2023-03-22T06:43:10.598Z,94259.84
2023-03-22T06:45:39.893Z,94285.72
2023-03-22T06:48:08.437Z,94295.59
2023-03-22T06:50:39.622Z,94298.66
2023-03-22T06:53:08.909Z,94290.56
2023-03-22T06:55:36.833Z,94288.94
2023-03-22T06:58:05.252Z,94298.47
2023-03-22T07:00:34.348Z,94302.22
2023-03-22T07:03:03.695Z,94308.34
2023-03-22T07:05:32.087Z,94299.31
2023-03-22T07:08:00.030Z,94319.97
2023-03-22T07:10:28.060Z,94303.22
2023-03-22T07:12:56.071Z,94318.88
2023-03-22T07:15:24.872Z,94295.13
2023-03-22T07:17:53.080Z,94311.72
2023-03-22T07:20:22.681Z,94319.19
2023-03-22T07:22:52.028Z,94320.66
2023-03-22T07:25:20.396Z,94324.31
2023-03-22T07:27:48.395Z,94335.06
2023-03-22T07:30:16.510Z,94321.72
2023-03-22T07:32:44.401Z,94338.31
2023-03-22T07:35:12.331Z,94331.59
2023-03-22T07:37:41.709Z,94334.66
2023-03-22T07:40:10.678Z,94334.28
2023-03-22T07:42:38.659Z,94322.41
2023-03-22T07:45:08.092Z,94339.25
2023-03-22T07:47:41.097Z,94350.63
2023-03-22T07:50:11.833Z,94349.28
2023-03-22T07:52:41.245Z,94341.97
2023-03-22T07:55:10.436Z,94352.00
2023-03-22T07:57:38.667Z,94335.63
2023-03-22T08:00:10.457Z,94336.53
2023-03-22T08:02:38.972Z,94355.09
2023-03-22T08:05:08.345Z,94348.78
2023-03-22T08:07:36.312Z,94353.50
2023-03-22T08:10:06.813Z,94351.06
2023-03-22T08:12:34.686Z,94360.63
2023-03-22T08:15:03.155Z,94353.22
2023-03-22T08:17:31.202Z,94349.63
2023-03-22T08:19:59.309Z,94331.00
2023-03-22T08:22:29.996Z,94335.06
2023-03-22T08:24:57.919Z,94348.41
2023-03-22T08:27:27.329Z,94329.09
2023-03-22T08:29:55.256Z,94361.53
2023-03-22T08:32:23.270Z,94346.28
2023-03-22T08:34:51.270Z,94346.94
2023-03-22T08:37:20.350Z,94361.66
2023-03-22T08:39:48.495Z,94347.06
2023-03-22T08:42:16.415Z,94366.09
2023-03-22T08:44:46.085Z,94347.06
2023-03-22T08:47:15.555Z,94371.66
2023-03-22T08:49:43.492Z,94363.56
2023-03-22T10:06:55.341Z,94375.94
2023-03-22T10:09:33.343Z,94380.69
2023-03-22T10:12:07.868Z,94377.44
2023-03-22T10:14:41.460Z,94386.91
2023-03-22T10:17:13.795Z,94382.41
2023-03-22T10:19:51.214Z,94396.94
2023-03-22T10:22:25.849Z,94395.78
2023-03-22T10:24:56.581Z,94379.81
2023-03-22T10:27:27.645Z,94397.72
2023-03-22T10:30:00.828Z,94395.56
2023-03-22T10:32:33.145Z,94378.47
2023-03-22T10:35:01.285Z,94382.13
2023-03-22T10:37:35.073Z,94395.78
2023-03-22T10:40:08.080Z,94378.75
2023-03-22T10:42:39.678Z,94391.72
2023-03-22T10:45:14.008Z,94374.91
2023-03-22T10:47:48.101Z,94345.13
2023-03-22T10:50:22.996Z,94388.00
2023-03-22T10:53:00.405Z,94379.13
2023-03-22T10:55:28.573Z,94397.03
2023-03-22T10:58:09.865Z,94387.75
2023-03-22T11:00:41.885Z,94374.78
2023-03-22T11:03:11.982Z,94363.25
2023-03-22T11:05:40.747Z,94375.41
2023-03-22T11:08:17.075Z,94354.63
2023-03-22T11:10:52.389Z,94361.84
2023-03-22T11:13:23.267Z,94373.56
2023-03-22T11:15:55.620Z,94387.53
2023-03-22T11:18:25.516Z,94352.88
2023-03-22T11:21:03.111Z,94369.78
2023-03-22T11:23:38.720Z,94355.47
2023-03-22T11:26:10.589Z,94353.88
2023-03-22T11:28:43.761Z,94353.31
2023-03-22T11:31:13.879Z,94345.97
2023-03-22T11:33:56.237Z,94379.25
2023-03-22T11:36:25.136Z,94378.66
2023-03-22T11:39:02.099Z,94380.00
2023-03-22T11:41:32.573Z,94376.75
2023-03-22T11:44:06.050Z,94362.25
2023-03-22T11:46:36.126Z,94369.59
2023-03-22T11:49:09.212Z,94331.09
2023-03-22T11:51:39.850Z,94362.25
2023-03-22T11:54:16.847Z,94353.56
2023-03-22T11:56:48.191Z,94354.47
2023-03-22T11:59:19.005Z,94359.84
2023-03-22T12:01:52.034Z,94373.66
2023-03-22T12:04:24.052Z,94375.34
2023-03-22T12:06:56.897Z,94378.50
2023-03-22T12:09:36.928Z,94380.56
2023-03-22T12:12:07.829Z,94372.94
2023-03-22T12:14:46.116Z,94376.47
2023-03-22T12:17:19.942Z,94341.66
2023-03-22T12:19:58.229Z,94363.09
2023-03-22T12:22:32.535Z,94354.75
2023-03-22T12:25:03.808Z,94376.84
2023-03-22T12:27:37.455Z,94367.97
2023-03-22T12:30:13.010Z,94362.78
2023-03-22T12:32:44.613Z,94367.16
2023-03-22T12:35:18.256Z,94351.59
2023-03-22T12:37:50.316Z,94362.91
2023-03-22T12:40:26.218Z,94333.09
2023-03-22T12:43:03.783Z,94358.69
2023-03-22T12:45:37.287Z,94351.59
2023-03-22T12:48:13.328Z,94362.00
2023-03-22T12:50:47.081Z,94353.63
2023-03-22T12:53:19.069Z,94351.41
2023-03-22T12:55:50.447Z,94348.84
2023-03-22T12:58:22.609Z,94346.88
2023-03-22T13:00:54.758Z,94357.19
2023-03-22T13:03:28.792Z,94356.25
2023-03-22T13:06:09.215Z,94331.66
2023-03-22T13:09:18.562Z,94342.00
2023-03-22T13:11:51.222Z,94355.97
2023-03-22T13:14:57.857Z,94354.88
2023-03-22T13:17:47.019Z,94357.78
2023-03-22T13:20:38.566Z,94361.44
2023-03-22T13:23:27.195Z,94341.25
2023-03-22T13:26:06.643Z,94353.16
2023-03-22T13:28:38.247Z,94363.56
2023-03-22T13:31:08.631Z,94309.63
2023-03-22T13:33:38.850Z,94333.53
2023-03-22T13:36:23.910Z,94325.94
2023-03-22T13:38:57.105Z,94326.50
2023-03-22T13:41:29.828Z,94328.44
2023-03-22T13:44:01.049Z,94356.53
2023-03-22T13:46:45.674Z,94358.97
2023-03-22T13:49:35.840Z,94330.00
2023-03-22T13:52:14.017Z,94360.06
2023-03-22T13:54:51.120Z,94350.50
2023-03-22T13:57:41.166Z,94364.97
2023-03-22T14:00:34.427Z,94357.34
2023-03-22T14:03:07.477Z,94337.97
2023-03-22T14:05:39.056Z,94339.53
2023-03-22T14:08:08.521Z,94350.50
2023-03-22T14:10:46.377Z,94345.94
2023-03-22T14:13:20.328Z,94339.91
2023-03-22T14:15:52.560Z,94344.53
2023-03-22T14:18:25.932Z,94347.91
2023-03-22T14:20:58.835Z,94325.44
